Terminal Aerodrome Forecast
Issued by NWS Cleveland, OH

Home | Current Version | Previous Version | Text Only | Print | Product List | Glossary On
Versions: 1 2 3 4 5 6 7 8 9 10 11 12 13 14 15 16 17 18 19 20 21 22 23
000
FTUS41 KCLE 290500
TAFMFD
TAF
KMFD 290540Z 2906/3006 35004KT P6SM BKN025 OVC040
     FM291300 28006KT P6SM SCT035
     FM291700 27007KT P6SM BKN045 OVC100
     FM292200 28008KT P6SM VCSH BKN045
     FM300300 23004KT P6SM SCT050 BKN080=

USA.gov is the U.S. government's official web portal to all federal, state and local government web resources and services.